Time;durP1;ratioP1;P1;durP2;ratioP2;P2;SDS_P1;SDS_P2;PMS_P1;PMS_P2;Temp;Humidity;BMP_temperature;BMP_pressure;BME280_temperature;BME280_humidity;BME280_pressure;Samples;Min_cycle;Max_cycle;Signal;HPM_P1;HPM_P2
2022/08/10 00:01:51;;;;;;;5.07;2.22;;;22.40;99.90;;;;;;5015257;28;20034;-77
2022/08/10 00:04:16;;;;;;;3.33;1.58;;;22.20;99.90;;;;;;5015412;28;20555;-78
2022/08/10 00:06:42;;;;;;;5.22;1.55;;;22.00;99.90;;;;;;5014674;28;20091;-73
2022/08/10 00:09:08;;;;;;;3.72;1.50;;;21.80;99.90;;;;;;5014659;28;20030;-78
2022/08/10 00:11:34;;;;;;;8.48;1.42;;;22.00;99.90;;;;;;5014995;28;20018;-76
2022/08/10 00:14:00;;;;;;;3.60;1.60;;;22.00;99.90;;;;;;5014904;28;20038;-77
2022/08/10 00:16:26;;;;;;;3.75;1.20;;;22.00;99.90;;;;;;5014905;28;20030;-78
2022/08/10 00:18:51;;;;;;;2.28;1.67;;;22.00;99.90;;;;;;5014509;28;20129;-78
2022/08/10 00:21:17;;;;;;;4.38;1.88;;;22.10;99.90;;;;;;5014174;28;20569;-78
2022/08/10 00:23:43;;;;;;;4.05;1.52;;;22.10;99.90;;;;;;5014658;28;20084;-78
2022/08/10 00:26:09;;;;;;;4.15;1.88;;;22.00;99.90;;;;;;5014565;28;20041;-78
2022/08/10 00:28:34;;;;;;;5.05;1.70;;;22.10;99.90;;;;;;5014448;28;20371;-78
2022/08/10 00:31:00;;;;;;;2.65;1.50;;;21.80;99.90;;;;;;5014655;28;20030;-78
2022/08/10 00:33:26;;;;;;;8.73;1.90;;;21.70;99.90;;;;;;5013883;28;20025;-78
2022/08/10 00:35:52;;;;;;;1.98;1.60;;;21.70;99.90;;;;;;5014348;28;20033;-78
2022/08/10 00:38:18;;;;;;;5.75;1.70;;;21.80;99.90;;;;;;5000698;28;20022;-78
2022/08/10 00:40:44;;;;;;;4.32;1.92;;;21.60;99.90;;;;;;5000530;28;20109;-77
2022/08/10 00:43:10;;;;;;;3.55;2.10;;;21.70;99.90;;;;;;5014316;28;20098;-74
2022/08/10 00:45:36;;;;;;;2.15;1.80;;;21.80;99.90;;;;;;5014200;28;20022;-78
2022/08/10 00:48:03;;;;;;;4.05;1.88;;;21.90;99.90;;;;;;5013944;28;20042;-77
2022/08/10 00:50:29;;;;;;;5.65;1.50;;;21.60;99.90;;;;;;5014003;28;20036;-78
2022/08/10 00:52:55;;;;;;;3.88;1.80;;;21.40;99.90;;;;;;5014260;28;20466;-78
2022/08/10 00:55:21;;;;;;;5.22;1.70;;;21.40;99.90;;;;;;5013792;28;20026;-78
2022/08/10 00:57:48;;;;;;;8.88;2.08;;;21.50;99.90;;;;;;5014073;28;20026;-74
2022/08/10 01:00:14;;;;;;;5.82;1.60;;;21.70;99.90;;;;;;5014018;28;20040;-78
2022/08/10 01:02:40;;;;;;;6.30;2.13;;;21.80;99.90;;;;;;5013391;28;20030;-78
2022/08/10 01:05:13;;;;;;;2.20;1.75;;;21.50;99.90;;;;;;5013967;28;20368;-78
2022/08/10 01:08:00;;;;;;;2.60;1.88;;;21.60;99.90;;;;;;5012051;28;20501;-79
2022/08/10 01:10:42;;;;;;;2.03;1.40;;;21.30;99.90;;;;;;5005297;28;20069;-77
2022/08/10 01:13:42;;;;;;;3.65;2.17;;;21.30;99.90;;;;;;5012436;28;20547;-78
2022/08/10 01:16:24;;;;;;;7.80;1.88;;;21.30;99.90;;;;;;5013650;28;20027;-76
2022/08/10 01:19:11;;;;;;;4.78;2.22;;;21.10;99.90;;;;;;5013503;28;20450;-78
2022/08/10 01:21:55;;;;;;;4.00;2.22;;;21.30;99.90;;;;;;5012326;28;20022;-75
2022/08/10 01:24:57;;;;;;;2.58;2.10;;;21.20;99.90;;;;;;5010275;28;20391;-75
2022/08/10 01:27:56;;;;;;;4.17;2.17;;;21.20;99.90;;;;;;5013045;28;20061;-71
2022/08/10 01:30:25;;;;;;;2.72;1.90;;;21.20;99.90;;;;;;5013251;28;20529;-71
2022/08/10 01:33:08;;;;;;;2.90;1.90;;;21.00;99.90;;;;;;5013302;28;20022;-74
2022/08/10 01:35:54;;;;;;;10.32;2.10;;;21.10;99.90;;;;;;5013478;28;20025;-73
2022/08/10 01:38:25;;;;;;;3.92;1.90;;;21.20;99.90;;;;;;4999493;28;20061;-75
2022/08/10 01:40:53;;;;;;;;;;;21.20;99.90;;;;;;5009234;28;20057;-73
2022/08/10 01:43:20;;;;;;;4.95;2.30;;;21.00;99.90;;;;;;5006806;28;19916;-76
2022/08/10 01:45:51;;;;;;;3.00;2.17;;;21.10;99.90;;;;;;5011266;28;20482;-73
2022/08/10 01:48:30;;;;;;;5.72;2.17;;;21.20;99.90;;;;;;5013056;28;20069;-78
2022/08/10 01:51:25;;;;;;;3.58;2.10;;;21.20;99.90;;;;;;5013259;28;20029;-78
2022/08/10 01:54:13;;;;;;;5.25;1.95;;;21.20;99.90;;;;;;5010536;28;20124;-72
2022/08/10 01:56:42;;;;;;;2.50;2.00;;;20.80;99.90;;;;;;5013095;28;20037;-72
2022/08/10 01:59:24;;;;;;;7.82;2.15;;;20.90;99.90;;;;;;5012961;28;20473;-73
2022/08/10 02:01:55;;;;;;;5.72;2.00;;;20.90;99.90;;;;;;5012828;28;20465;-73
2022/08/10 02:04:24;;;;;;;4.75;2.35;;;21.00;99.90;;;;;;5012924;28;20517;-74
2022/08/10 02:06:53;;;;;;;5.78;2.53;;;20.90;99.90;;;;;;5012887;28;20073;-77
2022/08/10 02:09:31;;;;;;;9.73;2.53;;;20.70;99.90;;;;;;5011415;28;20383;-76
2022/08/10 02:12:02;;;;;;;4.22;2.05;;;20.70;99.90;;;;;;4995077;28;20104;-75
2022/08/10 02:14:32;;;;;;;7.32;1.92;;;20.60;99.90;;;;;;4996655;28;20025;-75
2022/08/10 02:17:01;;;;;;;5.35;2.63;;;20.70;99.90;;;;;;4996256;28;20077;-76
2022/08/10 02:19:28;;;;;;;8.23;2.53;;;20.60;99.90;;;;;;5007528;28;20076;-77
2022/08/10 02:21:57;;;;;;;4.68;2.38;;;20.70;99.90;;;;;;5012797;28;20410;-77
2022/08/10 02:24:26;;;;;;;9.85;2.38;;;20.60;99.90;;;;;;5013168;28;20026;-77
2022/08/10 02:26:51;;;;;;;2.67;2.00;;;20.70;99.90;;;;;;5012802;28;20038;-78
2022/08/10 02:29:18;;;;;;;4.68;2.50;;;20.50;99.90;;;;;;4994151;28;20109;-78
2022/08/10 02:31:44;;;;;;;3.83;2.50;;;20.30;99.90;;;;;;5002753;28;20029;-75
2022/08/10 02:34:12;;;;;;;8.43;2.95;;;20.20;99.90;;;;;;5012689;28;20029;-78
2022/08/10 02:36:46;;;;;;;3.63;2.50;;;20.30;99.90;;;;;;5012661;28;20034;-77
2022/08/10 02:39:14;;;;;;;4.32;2.20;;;20.20;99.90;;;;;;5012594;28;20036;-78
2022/08/10 02:41:50;;;;;;;10.30;2.85;;;20.20;99.90;;;;;;5012686;28;20113;-77
2022/08/10 02:44:28;;;;;;;4.38;2.60;;;20.40;99.90;;;;;;5011271;28;20364;-77
2022/08/10 02:47:01;;;;;;;4.32;2.45;;;20.40;99.90;;;;;;5001129;28;20037;-76
2022/08/10 02:49:34;;;;;;;5.75;2.75;;;20.40;99.90;;;;;;5012764;28;20034;-78
2022/08/10 02:52:29;;;;;;;5.68;2.85;;;20.20;99.90;;;;;;5012564;28;20022;-78
2022/08/10 02:55:00;;;;;;;7.40;2.67;;;20.20;99.90;;;;;;5012371;28;20100;-78
2022/08/10 02:57:38;;;;;;;4.22;2.55;;;20.10;99.90;;;;;;5015494;28;20030;-78
2022/08/10 03:00:06;;;;;;;7.45;3.00;;;20.20;99.90;;;;;;5015674;28;20042;-78
2022/08/10 03:02:45;;;;;;;11.68;3.25;;;20.20;99.90;;;;;;5016061;28;20038;-78
2022/08/10 03:05:16;;;;;;;6.10;2.75;;;20.30;99.90;;;;;;5016075;28;20437;-78
2022/08/10 03:07:45;;;;;;;9.10;3.10;;;20.20;99.90;;;;;;5015875;28;20100;-78
2022/08/10 03:10:20;;;;;;;4.95;3.00;;;20.30;99.90;;;;;;5015976;28;20533;-78
2022/08/10 03:12:49;;;;;;;3.90;2.50;;;20.30;99.90;;;;;;5016100;28;20033;-78
2022/08/10 03:15:17;;;;;;;3.00;2.70;;;20.40;99.90;;;;;;5014402;28;20029;-79
2022/08/10 03:17:45;;;;;;;8.07;3.15;;;20.40;99.90;;;;;;5015786;28;20065;-78
2022/08/10 03:20:12;;;;;;;7.05;3.00;;;20.20;99.90;;;;;;5000728;28;20121;-78
2022/08/10 03:22:40;;;;;;;4.13;2.88;;;20.10;99.90;;;;;;5011292;28;20014;-78
2022/08/10 03:25:09;;;;;;;6.28;2.70;;;20.00;99.90;;;;;;5010038;28;20042;-79
2022/08/10 03:27:35;;;;;;;6.75;3.63;;;19.80;99.90;;;;;;5015256;28;20421;-78
2022/08/10 03:30:03;;;;;;;2.88;2.60;;;19.60;99.90;;;;;;5014609;28;20030;-77
2022/08/10 03:32:32;;;;;;;3.05;2.70;;;19.80;99.90;;;;;;5015528;28;20113;-74
2022/08/10 03:34:59;;;;;;;5.30;2.85;;;19.70;99.90;;;;;;5015800;28;20034;-78
2022/08/10 03:37:26;;;;;;;13.00;2.92;;;19.60;99.90;;;;;;5014105;28;20030;-78
2022/08/10 03:39:53;;;;;;;5.15;2.97;;;19.60;99.90;;;;;;5015568;28;20100;-78
2022/08/10 03:42:21;;;;;;;6.50;2.90;;;19.70;99.90;;;;;;5015163;28;20096;-78
2022/08/10 03:44:49;;;;;;;5.55;3.05;;;19.60;99.90;;;;;;4994734;28;20022;-78
2022/08/10 03:47:16;;;;;;;6.18;3.08;;;19.40;99.90;;;;;;5005327;28;20022;-78
2022/08/10 03:49:45;;;;;;;7.13;3.20;;;19.50;99.90;;;;;;5010750;28;20029;-77
2022/08/10 03:52:11;;;;;;;4.72;3.50;;;19.60;99.90;;;;;;5008602;28;20026;-78
2022/08/10 03:54:38;;;;;;;8.93;3.38;;;19.60;99.90;;;;;;5010731;28;20034;-78
2022/08/10 03:57:04;;;;;;;9.88;3.60;;;19.50;99.90;;;;;;5006451;28;20037;-78
2022/08/10 03:59:30;;;;;;;7.85;3.13;;;19.40;99.90;;;;;;5014567;28;20022;-78
2022/08/10 04:01:57;;;;;;;8.45;3.40;;;19.50;99.90;;;;;;5015090;28;20383;-78
2022/08/10 04:04:23;;;;;;;5.32;3.38;;;19.40;99.90;;;;;;5014934;28;20038;-78
2022/08/10 04:06:51;;;;;;;8.27;3.50;;;19.40;99.90;;;;;;5015017;28;20038;-78
2022/08/10 04:09:17;;;;;;;6.53;3.45;;;19.30;99.90;;;;;;5014235;28;20124;-78
2022/08/10 04:11:43;;;;;;;8.82;3.67;;;19.20;99.90;;;;;;5014655;28;20494;-80
2022/08/10 04:14:08;;;;;;;4.93;3.55;;;19.40;99.90;;;;;;5014957;28;20037;-80
2022/08/10 04:16:34;;;;;;;11.50;3.30;;;19.40;99.90;;;;;;5014803;28;20105;-78
2022/08/10 04:19:00;;;;;;;8.27;3.53;;;19.40;99.90;;;;;;5008963;28;20517;-76
2022/08/10 04:21:33;;;;;;;8.10;3.97;;;19.50;99.90;;;;;;5006867;28;20049;-75
2022/08/10 04:24:02;;;;;;;11.55;4.00;;;19.40;99.90;;;;;;5013893;28;20029;-78
2022/08/10 04:26:28;;;;;;;16.45;4.97;;;19.40;99.90;;;;;;5013843;28;20497;-78
2022/08/10 04:28:54;;;;;;;6.25;4.32;;;19.40;99.90;;;;;;5014207;28;20088;-78
2022/08/10 04:31:23;;;;;;;8.25;4.03;;;19.40;99.90;;;;;;5014714;28;20032;-78
2022/08/10 04:33:50;;;;;;;6.65;4.50;;;19.30;99.90;;;;;;5014312;28;20037;-78
2022/08/10 04:36:19;;;;;;;9.65;3.88;;;19.20;99.90;;;;;;5014888;28;20025;-77
2022/08/10 04:38:48;;;;;;;10.15;4.53;;;19.20;99.90;;;;;;5014028;28;20037;-78
2022/08/10 04:41:15;;;;;;;11.07;4.22;;;19.20;99.90;;;;;;5013795;28;20022;-75
2022/08/10 04:43:41;;;;;;;10.30;4.57;;;19.20;99.90;;;;;;5014578;28;20026;-79
2022/08/10 04:46:06;;;;;;;4.72;3.80;;;19.10;99.90;;;;;;5014027;28;20031;-77
2022/08/10 04:48:32;;;;;;;9.90;4.03;;;19.20;99.90;;;;;;5014248;28;20449;-79
2022/08/10 04:50:58;;;;;;;5.50;3.70;;;19.20;99.90;;;;;;5014081;28;20113;-76
2022/08/10 04:53:24;;;;;;;7.90;4.38;;;19.20;99.90;;;;;;5014065;28;20402;-79
2022/08/10 04:55:49;;;;;;;7.93;4.75;;;19.30;99.90;;;;;;5013756;28;20057;-78
2022/08/10 04:58:15;;;;;;;10.18;4.57;;;19.40;99.90;;;;;;5010004;28;20489;-77
2022/08/10 05:00:41;;;;;;;7.68;4.30;;;19.50;99.90;;;;;;5006944;28;20038;-78
2022/08/10 05:03:07;;;;;;;9.48;4.97;;;19.50;99.90;;;;;;5013974;28;20032;-79
2022/08/10 05:05:32;;;;;;;9.63;4.43;;;19.60;99.90;;;;;;5013941;28;20471;-77
2022/08/10 05:07:58;;;;;;;7.07;4.00;;;19.50;99.90;;;;;;5013701;28;20038;-78
2022/08/10 05:10:24;;;;;;;10.52;4.50;;;19.60;99.90;;;;;;5013626;28;20014;-78
2022/08/10 05:12:50;;;;;;;12.80;4.30;;;19.70;99.90;;;;;;5013879;28;20049;-72
2022/08/10 05:15:18;;;;;;;9.10;4.45;;;19.90;99.90;;;;;;5013797;28;20026;-79
2022/08/10 05:17:45;;;;;;;10.50;4.63;;;19.70;99.90;;;;;;5013852;28;20073;-78
2022/08/10 05:20:11;;;;;;;4.97;4.03;;;19.60;99.90;;;;;;4998712;28;20033;-79
2022/08/10 05:22:42;;;;;;;11.27;4.30;;;19.50;99.90;;;;;;5013721;28;20025;-79
2022/08/10 05:25:13;;;;;;;15.52;5.18;;;19.70;99.90;;;;;;5013092;28;20129;-75
2022/08/10 05:27:40;;;;;;;5.13;4.47;;;19.60;99.90;;;;;;5013721;28;20026;-79
2022/08/10 05:30:07;;;;;;;12.07;4.38;;;19.50;99.90;;;;;;5013813;28;20050;-79
2022/08/10 05:32:34;;;;;;;9.52;4.43;;;19.50;99.90;;;;;;5013274;28;20056;-76
2022/08/10 05:34:59;;;;;;;8.13;4.70;;;19.50;99.90;;;;;;5013634;28;20470;-78
2022/08/10 05:37:28;;;;;;;11.32;4.43;;;19.50;99.90;;;;;;5013237;28;20037;-78
2022/08/10 05:39:54;;;;;;;7.47;4.70;;;19.40;99.90;;;;;;5013187;28;20459;-68
2022/08/10 05:42:22;;;;;;;7.25;4.40;;;19.70;99.90;;;;;;5000037;28;20034;-72
2022/08/10 05:44:48;;;;;;;7.88;4.50;;;19.80;99.90;;;;;;5013303;28;20032;-68
2022/08/10 05:47:15;;;;;;;11.57;4.57;;;20.20;99.90;;;;;;4998671;28;20037;-68
2022/08/10 05:49:41;;;;;;;14.82;4.55;;;20.50;99.90;;;;;;4997927;28;20110;-68
2022/08/10 05:52:07;;;;;;;13.23;4.35;;;20.70;99.90;;;;;;4995835;28;20109;-71
2022/08/10 05:54:33;;;;;;;8.95;4.80;;;20.80;99.90;;;;;;4997008;28;20462;-68
2022/08/10 05:56:59;;;;;;;11.20;5.07;;;20.70;99.90;;;;;;5009044;28;20076;-68
2022/08/10 05:59:30;;;;;;;11.05;5.20;;;20.70;99.90;;;;;;5003496;28;20045;-68
2022/08/10 06:01:59;;;;;;;9.67;5.27;;;20.70;99.90;;;;;;4997049;28;20042;-69
2022/08/10 06:04:29;;;;;;;11.10;5.30;;;20.70;99.90;;;;;;4997753;28;20026;-70
2022/08/10 06:06:57;;;;;;;13.23;5.30;;;20.60;99.90;;;;;;5008660;28;20029;-69
2022/08/10 06:09:24;;;;;;;6.97;5.00;;;20.30;99.90;;;;;;5006885;28;20060;-69
2022/08/10 06:11:52;;;;;;;9.60;5.47;;;20.40;99.90;;;;;;4999742;28;20022;-69
2022/08/10 06:17:04;;;;;;;10.45;5.82;;;20.90;99.90;;;;;;5004158;28;20038;-69
2022/08/10 06:19:31;;;;;;;11.93;6.25;;;21.10;99.90;;;;;;4997689;28;20128;-69
2022/08/10 06:21:57;;;;;;;12.73;5.60;;;21.10;99.90;;;;;;5008183;28;20066;-68
2022/08/10 06:24:25;;;;;;;12.40;5.40;;;21.20;99.90;;;;;;5011746;28;20054;-68
2022/08/10 06:26:51;;;;;;;11.60;5.28;;;21.30;99.90;;;;;;5011706;28;20029;-69
2022/08/10 06:29:18;;;;;;;9.88;5.70;;;21.40;99.90;;;;;;5011681;28;20076;-69
2022/08/10 06:31:50;;;;;;;9.10;5.38;;;21.50;99.90;;;;;;5013844;28;20084;-68
2022/08/10 06:34:39;;;;;;;;;;;21.40;99.90;;;;;;5015644;28;20045;-69
2022/08/10 06:37:06;;;;;;;13.85;5.95;;;21.40;99.90;;;;;;5017427;28;19916;-69
2022/08/10 06:39:33;;;;;;;17.80;6.88;;;21.50;99.90;;;;;;5015845;28;20136;-69
2022/08/10 06:42:28;;;;;;;17.98;6.15;;;21.70;99.90;;;;;;5015973;28;20422;-68
2022/08/10 06:45:08;;;;;;;14.13;6.07;;;21.50;99.90;;;;;;5004982;28;20033;-68
2022/08/10 06:47:38;;;;;;;18.13;5.28;;;21.20;99.90;;;;;;5002869;28;20431;-69
2022/08/10 06:50:12;;;;;;;15.23;5.38;;;21.30;99.90;;;;;;4993366;28;20030;-69
2022/08/10 06:52:41;;;;;;;8.80;5.30;;;21.00;99.90;;;;;;4994598;28;20372;-69
2022/08/10 06:55:10;;;;;;;16.52;5.35;;;21.40;99.90;;;;;;4995444;28;20032;-69
2022/08/10 06:57:37;;;;;;;9.98;5.18;;;21.70;99.90;;;;;;4995039;28;20395;-69
2022/08/10 07:00:05;;;;;;;11.07;4.95;;;21.70;99.90;;;;;;4995007;28;20054;-68
2022/08/10 07:02:46;;;;;;;17.45;6.07;;;21.80;99.90;;;;;;5009245;28;20080;-68
2022/08/10 07:05:17;;;;;;;13.23;6.72;;;22.30;99.90;;;;;;4998292;28;20362;-70
2022/08/10 07:07:45;;;;;;;30.92;6.22;;;22.10;99.90;;;;;;4999848;28;20498;-69
2022/08/10 07:10:15;;;;;;;14.00;5.82;;;22.20;99.90;;;;;;4996446;28;20029;-69
2022/08/10 07:12:43;;;;;;;14.85;5.30;;;22.40;99.90;;;;;;4996239;28;20065;-70
2022/08/10 07:15:12;;;;;;;15.55;5.43;;;21.80;99.90;;;;;;4996504;28;20014;-71
2022/08/10 07:17:39;;;;;;;13.85;5.88;;;22.10;99.90;;;;;;4994809;28;20062;-69
2022/08/10 07:20:09;;;;;;;15.38;5.55;;;22.00;99.90;;;;;;4996320;28;20026;-69
2022/08/10 07:22:36;;;;;;;11.68;4.68;;;22.20;99.90;;;;;;5014509;28;20105;-69
2022/08/10 07:25:04;;;;;;;46.42;6.38;;;22.30;99.90;;;;;;5011364;28;20395;-69
2022/08/10 07:27:32;;;;;;;17.95;5.05;;;22.30;99.90;;;;;;5015260;28;20039;-79
2022/08/10 07:29:59;;;;;;;19.23;5.45;;;22.60;99.90;;;;;;5015642;28;20033;-70
2022/08/10 07:32:26;;;;;;;12.35;5.78;;;22.50;99.90;;;;;;5015597;28;20034;-70
2022/08/10 07:34:53;;;;;;;10.23;5.50;;;22.50;99.90;;;;;;5015056;28;20014;-70
2022/08/10 07:37:22;;;;;;;11.65;5.00;;;22.80;99.90;;;;;;5015237;28;20026;-70
2022/08/10 07:39:51;;;;;;;12.60;5.45;;;22.90;99.90;;;;;;5015078;28;20017;-69
2022/08/10 07:42:19;;;;;;;15.27;5.55;;;23.40;99.90;;;;;;5014769;28;20037;-70
2022/08/10 07:44:46;;;;;;;13.00;6.22;;;23.60;99.90;;;;;;5015070;28;20032;-70
2022/08/10 07:47:41;;;;;;;16.75;6.00;;;23.70;99.90;;;;;;5010726;28;20038;-70
2022/08/10 07:50:10;;;;;;;11.82;4.97;;;23.60;99.90;;;;;;5016179;28;20049;-70
2022/08/10 07:52:38;;;;;;;14.05;4.68;;;23.60;99.90;;;;;;5015093;28;20022;-70
2022/08/10 07:55:06;;;;;;;10.52;4.93;;;23.70;99.90;;;;;;5010614;28;20030;-70
2022/08/10 07:57:36;;;;;;;12.77;5.70;;;23.90;99.90;;;;;;5010186;28;20038;-70
2022/08/10 08:00:05;;;;;;;13.52;5.30;;;23.90;99.90;;;;;;5015004;28;20026;-70
2022/08/10 08:02:58;;;;;;;9.13;4.97;;;24.20;99.90;;;;;;5014885;28;20069;-70
2022/08/10 08:05:26;;;;;;;9.32;5.22;;;24.40;99.90;;;;;;5014794;28;20037;-71
2022/08/10 08:07:53;;;;;;;10.80;5.60;;;24.40;99.90;;;;;;5014918;28;20073;-75
2022/08/10 08:10:22;;;;;;;17.08;5.43;;;24.60;99.90;;;;;;5014781;28;20117;-79
2022/08/10 08:12:51;;;;;;;10.55;5.22;;;24.50;99.90;;;;;;5013384;28;20025;-78
2022/08/10 08:15:19;;;;;;;7.38;4.53;;;24.70;99.90;;;;;;5010299;28;20026;-78
2022/08/10 08:17:47;;;;;;;15.05;5.57;;;25.20;99.50;;;;;;5007725;28;20561;-80
2022/08/10 08:20:16;;;;;;;13.30;5.75;;;25.20;99.30;;;;;;5000809;28;20057;-79
2022/08/10 08:22:43;;;;;;;16.20;6.07;;;25.00;99.90;;;;;;5013481;28;20100;-81
2022/08/10 08:25:10;;;;;;;15.73;5.78;;;25.00;99.90;;;;;;5014462;28;20483;-80
2022/08/10 08:27:39;;;;;;;17.05;6.35;;;25.20;99.70;;;;;;5010123;28;20113;-75
2022/08/10 08:30:07;;;;;;;17.55;5.90;;;25.10;99.90;;;;;;5007909;28;20033;-81
2022/08/10 08:32:36;;;;;;;9.55;5.07;;;25.00;99.90;;;;;;5014246;28;20030;-73
2022/08/10 08:35:06;;;;;;;12.40;5.10;;;25.20;99.90;;;;;;5014404;28;20053;-80
2022/08/10 08:37:33;;;;;;;9.40;5.57;;;25.30;99.90;;;;;;5014438;28;20022;-80
2022/08/10 08:40:03;;;;;;;13.02;5.65;;;25.50;99.50;;;;;;5014360;28;20466;-80
2022/08/10 08:43:10;;;;;;;21.70;5.68;;;25.30;99.70;;;;;;5014195;28;20021;-80
2022/08/10 08:45:47;;;;;;;8.57;4.93;;;25.40;99.60;;;;;;5012119;28;20458;-81
2022/08/10 08:48:19;;;;;;;9.50;5.28;;;25.90;99.10;;;;;;5009499;28;20487;-78
2022/08/10 08:51:00;;;;;;;10.73;4.57;;;26.20;98.80;;;;;;5009355;28;20030;-81
2022/08/10 08:53:57;;;;;;;18.52;5.40;;;26.40;98.30;;;;;;5014279;28;20034;-79
2022/08/10 08:56:47;;;;;;;13.48;4.82;;;26.40;97.60;;;;;;4993103;28;20487;-79
2022/08/10 08:59:34;;;;;;;14.88;4.53;;;26.40;98.40;;;;;;5008741;28;20043;-79
2022/08/10 09:02:08;;;;;;;8.10;4.30;;;26.40;98.40;;;;;;5013767;28;20042;-79
2022/08/10 09:04:56;;;;;;;8.48;5.07;;;26.80;97.60;;;;;;5011960;28;20045;-77
2022/08/10 09:07:55;;;;;;;14.00;4.80;;;26.90;97.80;;;;;;5013986;28;20088;-80
2022/08/10 09:10:42;;;;;;;11.10;4.40;;;27.20;96.40;;;;;;5014212;28;20119;-80
2022/08/10 09:13:17;;;;;;;15.93;3.97;;;27.40;95.70;;;;;;5013705;28;20121;-81
2022/08/10 09:16:02;;;;;;;17.85;3.95;;;27.90;96.00;;;;;;5013373;28;20121;-81
2022/08/10 09:18:45;;;;;;;14.93;5.20;;;28.30;95.60;;;;;;5012310;28;20022;-78
2022/08/10 09:21:16;;;;;;;13.20;4.38;;;28.00;95.00;;;;;;4995940;28;20542;-78
2022/08/10 09:23:57;;;;;;;13.88;4.55;;;28.00;95.40;;;;;;5004967;28;20117;-80
2022/08/10 09:26:48;;;;;;;7.80;3.78;;;27.90;95.60;;;;;;5004518;28;20073;-81
2022/08/10 09:29:26;;;;;;;6.00;3.53;;;28.30;94.90;;;;;;5000140;28;20506;-85
2022/08/10 09:32:07;;;;;;;6.57;4.05;;;28.70;93.90;;;;;;5003454;28;20026;-77
2022/08/10 09:34:56;;;;;;;11.07;3.13;;;28.70;94.00;;;;;;5007671;28;20052;-79
2022/08/10 09:37:41;;;;;;;11.77;3.40;;;28.90;94.10;;;;;;5007622;28;20486;-79
2022/08/10 09:40:37;;;;;;;6.82;3.55;;;29.40;94.00;;;;;;4999761;28;20530;-77
2022/08/10 09:43:08;;;;;;;9.02;3.08;;;28.90;93.50;;;;;;5010120;28;20030;-77
2022/08/10 09:46:05;;;;;;;7.03;3.03;;;28.40;94.00;;;;;;5008775;28;20034;-80
2022/08/10 09:48:57;;;;;;;11.13;3.28;;;28.10;94.10;;;;;;5006219;28;20065;-76
2022/08/10 09:51:55;;;;;;;4.90;2.83;;;28.20;93.90;;;;;;5003042;28;20030;-79
2022/08/10 09:54:52;;;;;;;7.25;3.08;;;28.80;93.60;;;;;;4999040;28;20038;-81
2022/08/10 09:57:33;;;;;;;6.97;3.45;;;28.90;92.80;;;;;;4991521;28;20501;-80
2022/08/10 10:00:13;;;;;;;15.90;3.00;;;29.00;93.10;;;;;;5010440;28;20497;-80
2022/08/10 10:02:47;;;;;;;13.27;2.83;;;28.80;92.60;;;;;;4997964;28;20042;-75
2022/08/10 10:05:43;;;;;;;7.97;2.53;;;28.80;92.80;;;;;;4992825;28;20026;-75
2022/08/10 10:08:14;;;;;;;8.27;2.88;;;28.90;92.90;;;;;;4990991;28;20125;-79
2022/08/10 10:11:07;;;;;;;7.65;2.75;;;29.10;92.60;;;;;;4993317;28;20030;-74
2022/08/10 10:13:41;;;;;;;8.93;2.85;;;29.50;91.40;;;;;;4993441;28;20471;-81
2022/08/10 10:16:32;;;;;;;6.93;2.50;;;29.20;92.30;;;;;;4992929;28;20034;-77
2022/08/10 10:19:16;;;;;;;9.43;2.90;;;29.70;91.30;;;;;;4993092;28;20065;-80
2022/08/10 10:22:07;;;;;;;6.32;2.55;;;29.80;90.90;;;;;;5000937;28;20080;-80
2022/08/10 10:24:44;;;;;;;6.47;2.30;;;30.20;90.60;;;;;;4993051;28;20037;-80
2022/08/10 10:27:16;;;;;;;7.38;2.53;;;30.10;90.70;;;;;;4992745;28;20297;-80
2022/08/10 10:29:45;;;;;;;10.40;2.55;;;30.30;90.60;;;;;;4992648;28;20453;-80
2022/08/10 10:32:34;;;;;;;8.55;2.20;;;30.40;88.30;;;;;;4991772;28;20128;-79
2022/08/10 10:35:23;;;;;;;6.45;2.70;;;30.70;88.80;;;;;;4991838;28;20034;-81
2022/08/10 10:37:52;;;;;;;7.70;2.30;;;30.70;88.40;;;;;;4992653;28;20114;-81
2022/08/10 10:40:20;;;;;;;5.55;2.20;;;30.60;89.20;;;;;;4993058;28;20030;-81
2022/08/10 10:43:17;;;;;;;5.85;2.53;;;30.70;88.90;;;;;;4992334;28;20029;-81
2022/08/10 10:46:22;;;;;;;7.80;2.80;;;30.90;87.70;;;;;;5005570;28;20507;-80
2022/08/10 10:49:35;;;;;;;9.80;2.83;;;31.20;87.30;;;;;;4992501;28;20407;-81
2022/08/10 10:52:13;;;;;;;8.57;2.67;;;31.10;88.00;;;;;;4992549;28;20081;-81
2022/08/10 10:54:58;;;;;;;5.80;2.40;;;31.10;87.80;;;;;;4992500;28;20073;-75
2022/08/10 10:57:44;;;;;;;8.45;2.50;;;30.90;87.00;;;;;;4992446;28;20490;-81
2022/08/10 11:00:11;;;;;;;9.45;2.70;;;30.90;86.90;;;;;;4993815;28;20501;-81
2022/08/10 11:02:46;;;;;;;8.32;2.85;;;31.60;86.30;;;;;;4991155;28;20117;-81
2022/08/10 11:05:25;;;;;;;6.38;2.60;;;31.60;84.70;;;;;;4995434;28;20030;-81
2022/08/10 11:08:06;;;;;;;12.38;2.97;;;32.20;84.80;;;;;;4992546;28;20089;-80
2022/08/10 11:11:01;;;;;;;11.25;2.85;;;31.90;85.00;;;;;;4992914;28;20506;-81
2022/08/10 11:13:45;;;;;;;13.02;2.65;;;31.70;84.60;;;;;;5001362;28;20125;-81
2022/08/10 11:16:28;;;;;;;9.20;2.90;;;31.40;83.90;;;;;;4992587;28;20385;-80
2022/08/10 11:19:11;;;;;;;12.82;2.20;;;31.30;85.10;;;;;;4995820;28;20026;-80
2022/08/10 11:22:16;;;;;;;8.60;2.42;;;32.20;84.40;;;;;;5009348;28;20461;-81
2022/08/10 11:24:45;;;;;;;14.40;2.50;;;32.30;83.60;;;;;;5015390;28;20050;-79
2022/08/10 11:27:32;;;;;;;7.50;2.22;;;32.40;81.50;;;;;;5015135;28;20084;-81
2022/08/10 11:30:17;;;;;;;6.70;2.35;;;32.10;82.00;;;;;;5015649;28;20466;-81
2022/08/10 11:33:01;;;;;;;7.63;2.60;;;33.00;79.70;;;;;;5007542;28;20038;-80
2022/08/10 11:35:31;;;;;;;6.72;2.00;;;33.00;79.90;;;;;;4995791;28;20069;-81
2022/08/10 11:38:11;;;;;;;12.27;2.33;;;32.40;80.50;;;;;;4994278;28;20041;-78
2022/08/10 11:40:58;;;;;;;16.50;2.50;;;32.50;80.40;;;;;;4995584;28;20471;-80
2022/08/10 11:43:28;;;;;;;7.93;2.10;;;33.00;78.70;;;;;;4995591;28;20031;-80
2022/08/10 11:46:10;;;;;;;5.10;2.63;;;32.60;79.30;;;;;;4991625;28;20080;-72
2022/08/10 11:48:42;;;;;;;7.53;2.45;;;32.80;79.60;;;;;;5009890;28;20737;-81
2022/08/10 11:51:18;;;;;;;12.90;2.40;;;33.30;78.10;;;;;;4997327;28;20018;-80
2022/08/10 11:53:50;;;;;;;10.27;2.17;;;33.10;78.60;;;;;;5003755;28;20118;-76
2022/08/10 11:56:26;;;;;;;7.20;2.22;;;33.30;79.20;;;;;;5002940;28;20030;-78
2022/08/10 12:01:41;;;;;;;5.57;2.50;;;34.00;76.70;;;;;;5013272;28;20033;-81
2022/08/10 12:04:08;;;;;;;8.80;2.55;;;34.50;73.70;;;;;;5010326;28;20054;-81
2022/08/10 12:06:37;;;;;;;12.10;2.80;;;34.80;73.70;;;;;;5005216;28;20100;-81
2022/08/10 12:09:04;;;;;;;5.20;1.90;;;35.00;72.10;;;;;;5005407;28;20032;-81
2022/08/10 12:11:31;;;;;;;7.03;2.20;;;34.40;73.40;;;;;;4998967;28;20022;-80
2022/08/10 12:14:03;;;;;;;7.75;2.47;;;34.60;72.50;;;;;;5004856;28;20030;-81
2022/08/10 12:16:33;;;;;;;6.97;2.13;;;35.30;72.70;;;;;;5005663;28;20026;-80
2022/08/10 12:19:04;;;;;;;7.78;2.65;;;35.10;73.20;;;;;;5005535;28;20474;-80
2022/08/10 12:21:37;;;;;;;9.65;2.33;;;34.80;73.00;;;;;;5013955;28;20030;-81
2022/08/10 12:24:29;;;;;;;7.82;2.88;;;34.40;72.60;;;;;;5013162;28;20045;-81
2022/08/10 12:27:00;;;;;;;8.18;2.05;;;35.30;73.10;;;;;;5013522;28;20390;-81
2022/08/10 12:29:41;;;;;;;5.80;2.10;;;35.80;72.20;;;;;;5013321;28;20466;-81
2022/08/10 12:32:44;;;;;;;5.88;2.00;;;34.90;69.40;;;;;;5012798;28;20434;-81
2022/08/10 12:35:38;;;;;;;8.77;2.20;;;35.10;71.20;;;;;;5013704;28;20083;-82
2022/08/10 12:38:20;;;;;;;3.80;2.47;;;34.70;71.40;;;;;;5003190;28;20038;-82
2022/08/10 12:40:56;;;;;;;6.72;2.45;;;34.80;70.50;;;;;;5010005;28;20390;-82
2022/08/10 12:43:42;;;;;;;15.93;2.45;;;35.60;70.70;;;;;;5013626;28;20026;-81
2022/08/10 12:46:24;;;;;;;6.32;2.22;;;35.40;69.30;;;;;;5014175;28;20041;-81
2022/08/10 12:49:12;;;;;;;13.43;2.38;;;35.60;70.70;;;;;;5009710;28;20490;-80
2022/08/10 12:51:57;;;;;;;6.20;2.33;;;34.80;70.60;;;;;;5002836;28;20033;-79
2022/08/10 12:54:25;;;;;;;8.38;2.35;;;35.20;68.90;;;;;;5013753;28;20037;-81
2022/08/10 12:56:58;;;;;;;3.83;2.40;;;35.90;68.90;;;;;;5014229;28;20073;-75
2022/08/10 12:59:26;;;;;;;3.30;2.30;;;35.80;69.20;;;;;;5002857;28;20400;-77
2022/08/10 13:01:54;;;;;;;10.82;2.47;;;36.20;69.40;;;;;;5002921;28;20034;-73
2022/08/10 13:04:31;;;;;;;8.10;2.65;;;37.00;68.30;;;;;;5005233;28;20030;-81
2022/08/10 13:07:00;;;;;;;4.28;2.50;;;38.00;67.50;;;;;;5003992;28;20034;-80
2022/08/10 13:09:27;;;;;;;12.55;2.22;;;37.30;67.20;;;;;;5009442;28;20026;-78
2022/08/10 13:11:58;;;;;;;15.25;2.58;;;38.20;66.50;;;;;;5005862;28;20084;-79
2022/08/10 13:14:32;;;;;;;11.80;1.95;;;38.10;65.90;;;;;;5006644;28;20041;-78
2022/08/10 13:17:00;;;;;;;7.20;2.33;;;38.20;65.10;;;;;;5007516;28;20101;-78
2022/08/10 13:19:31;;;;;;;7.55;2.33;;;39.00;64.80;;;;;;5005309;28;20388;-77
2022/08/10 13:22:01;;;;;;;3.28;2.47;;;38.50;65.00;;;;;;5011118;28;20029;-77